Time;durP1;ratioP1;P1;durP2;ratioP2;P2;SDS_P1;SDS_P2;PMS_P1;PMS_P2;Temp;Humidity;BMP_temperature;BMP_pressure;BME280_temperature;BME280_humidity;BME280_pressure;Samples;Min_cycle;Max_cycle;Signal;HPM_P1;HPM_P2
2021/05/24 00:00:34;;;;;;;3.93;1.83;;;;;;;6.08;83.94;96289.97;5080129;28;20067;-75
2021/05/24 00:03:00;;;;;;;3.63;1.60;;;;;;;6.16;83.64;96288.50;5084069;28;20666;-75
2021/05/24 00:05:29;;;;;;;3.63;1.70;;;;;;;6.08;84.01;96278.72;5062954;28;20524;-75
2021/05/24 00:07:55;;;;;;;4.23;2.03;;;;;;;6.16;83.76;96278.06;5075659;28;20031;-75
2021/05/24 00:10:25;;;;;;;3.50;1.83;;;;;;;6.10;83.39;96280.25;5079401;28;20036;-75
2021/05/24 00:12:53;;;;;;;4.67;1.70;;;;;;;6.09;84.12;96288.19;5053895;28;20064;-75
2021/05/24 00:15:21;;;;;;;5.20;1.60;;;;;;;6.16;83.96;96283.28;5057496;28;20584;-75
2021/05/24 00:17:49;;;;;;;4.77;1.40;;;;;;;6.33;83.44;96267.81;5075839;28;20122;-76
2021/05/24 00:20:17;;;;;;;7.00;1.60;;;;;;;6.35;83.28;96258.06;5074773;28;20478;-75
2021/05/24 00:22:44;;;;;;;3.97;1.20;;;;;;;6.59;82.73;96254.28;5080491;28;20039;-75
2021/05/24 00:25:10;;;;;;;5.80;1.40;;;;;;;6.56;82.39;96246.69;5055298;28;20025;-75
2021/05/24 00:27:36;;;;;;;4.23;1.90;;;;;;;6.31;83.00;96246.22;5056089;28;20024;-75
2021/05/24 00:30:09;;;;;;;5.73;2.03;;;;;;;6.28;83.25;96241.28;5074035;28;20039;-75
2021/05/24 00:32:35;;;;;;;3.03;1.70;;;;;;;6.16;83.22;96234.47;5055720;28;20028;-76
2021/05/24 00:35:00;;;;;;;3.73;1.90;;;;;;;6.20;83.26;96229.81;5052691;28;20021;-75
2021/05/24 00:37:26;;;;;;;2.30;1.30;;;;;;;6.29;82.97;96231.66;5064100;28;20032;-75
2021/05/24 00:39:52;;;;;;;2.70;1.40;;;;;;;6.38;82.87;96226.44;5069918;28;20028;-75
2021/05/24 00:42:18;;;;;;;3.00;1.50;;;;;;;6.32;82.65;96232.22;5065461;28;20465;-75
2021/05/24 00:44:44;;;;;;;6.17;1.70;;;;;;;6.36;83.04;96225.75;5063451;28;20036;-75
2021/05/24 00:47:10;;;;;;;3.60;1.40;;;;;;;6.43;82.24;96222.59;5056321;28;20624;-75
2021/05/24 00:49:35;;;;;;;2.87;1.30;;;;;;;6.59;81.55;96230.75;5051378;28;20024;-75
2021/05/24 00:52:24;;;;;;;2.47;1.40;;;;;;;6.76;80.75;96224.06;5058559;28;20047;-75
2021/05/24 00:54:50;;;;;;;5.30;1.20;;;;;;;6.70;80.92;96216.75;5056725;28;20032;-75
2021/05/24 00:57:16;;;;;;;8.53;1.37;;;;;;;6.77;80.25;96207.41;5051979;28;20824;-75
2021/05/24 00:59:42;;;;;;;5.10;1.20;;;;;;;6.86;80.33;96198.75;5060530;28;20028;-75
2021/05/24 01:02:08;;;;;;;2.93;1.00;;;;;;;6.89;80.02;96202.88;5063794;28;20060;-75
2021/05/24 01:04:37;;;;;;;2.77;1.17;;;;;;;6.90;80.23;96194.06;5051418;28;20033;-74
2021/05/24 01:07:04;;;;;;;3.20;1.13;;;;;;;6.79;80.57;96198.47;5053541;28;20498;-79
2021/05/24 01:09:30;;;;;;;2.73;1.17;;;;;;;6.70;80.64;96193.22;5054855;28;20028;-75
2021/05/24 01:11:56;;;;;;;3.30;1.43;;;;;;;6.62;81.22;96186.06;5068570;28;20028;-75
2021/05/24 01:14:23;;;;;;;2.57;1.20;;;;;;;6.58;81.68;96189.94;5050644;28;20032;-78
2021/05/24 01:16:57;;;;;;;3.80;1.43;;;;;;;6.58;81.87;96184.69;5065500;28;20035;-75
2021/05/24 01:19:24;;;;;;;7.33;1.27;;;;;;;6.70;81.04;96186.22;5056143;28;20106;-75
2021/05/24 01:21:51;;;;;;;3.87;1.17;;;;;;;6.75;80.32;96185.81;5051854;28;20027;-76
2021/05/24 01:24:18;;;;;;;2.23;1.17;;;;;;;6.99;78.82;96181.00;5069719;28;20047;-75
2021/05/24 01:26:45;;;;;;;3.07;1.00;;;;;;;7.13;78.19;96171.91;5076309;28;20146;-76
2021/05/24 01:29:11;;;;;;;5.27;1.10;;;;;;;7.25;76.94;96180.44;5068475;28;20036;-75
2021/05/24 01:31:38;;;;;;;3.13;1.10;;;;;;;7.26;76.97;96174.22;5049717;28;20032;-76
2021/05/24 01:34:03;;;;;;;3.40;1.10;;;;;;;7.28;76.89;96172.31;5052439;28;20510;-75
2021/05/24 01:36:33;;;;;;;1.70;0.80;;;;;;;7.23;77.26;96180.56;5068926;28;20111;-76
2021/05/24 01:38:59;;;;;;;3.80;0.90;;;;;;;7.41;75.94;96185.06;5059624;28;20037;-75
2021/05/24 01:41:25;;;;;;;2.40;0.73;;;;;;;7.55;75.52;96168.94;5066483;28;20035;-75
2021/05/24 01:43:51;;;;;;;2.27;0.80;;;;;;;7.88;73.25;96153.66;5054903;28;20044;-75
2021/05/24 01:46:18;;;;;;;9.40;1.73;;;;;;;7.94;73.48;96160.94;5061184;28;20073;-75
2021/05/24 01:48:44;;;;;;;3.50;0.90;;;;;;;7.86;74.09;96158.22;5054201;28;20025;-75
2021/05/24 01:51:10;;;;;;;2.63;1.37;;;;;;;7.93;73.48;96151.44;5050975;28;20465;-75
2021/05/24 01:53:37;;;;;;;3.53;1.00;;;;;;;7.87;73.75;96149.41;5054670;28;20135;-75
2021/05/24 01:56:04;;;;;;;3.27;1.13;;;;;;;7.99;73.21;96150.88;5044893;28;20024;-75
2021/05/24 01:58:30;;;;;;;2.13;0.80;;;;;;;7.92;73.56;96149.81;5067911;28;20572;-76
2021/05/24 02:01:05;;;;;;;2.97;0.90;;;;;;;8.05;72.35;96150.28;5051559;28;20502;-75
2021/05/24 02:03:31;;;;;;;4.80;1.20;;;;;;;7.90;74.20;96138.63;5043219;28;20021;-75
2021/05/24 02:06:01;;;;;;;3.23;1.00;;;;;;;7.88;73.79;96137.94;5073036;28;20104;-75
2021/05/24 02:08:27;;;;;;;2.20;0.80;;;;;;;7.83;73.99;96142.81;5063125;28;20417;-75
2021/05/24 02:10:54;;;;;;;3.03;1.57;;;;;;;7.66;74.85;96141.78;5072455;28;20024;-75
2021/05/24 02:13:20;;;;;;;1.90;0.90;;;;;;;7.63;74.58;96124.56;5064840;28;20032;-75
2021/05/24 02:15:46;;;;;;;2.63;0.90;;;;;;;7.60;75.05;96119.59;5072808;28;20426;-75
2021/05/24 02:18:12;;;;;;;2.03;0.97;;;;;;;7.43;75.99;96109.88;5064432;28;20040;-76
2021/05/24 02:20:40;;;;;;;2.93;1.00;;;;;;;7.36;76.19;96103.59;5078447;28;20024;-75
2021/05/24 02:23:08;;;;;;;2.20;1.10;;;;;;;7.28;76.79;96112.16;5070107;28;20490;-75
2021/05/24 02:25:34;;;;;;;2.77;0.90;;;;;;;7.17;77.10;96102.66;5052876;28;20029;-75
2021/05/24 02:28:01;;;;;;;3.67;1.10;;;;;;;7.28;76.25;96104.31;5072487;28;20048;-75
2021/05/24 02:30:28;;;;;;;2.37;0.97;;;;;;;7.19;76.32;96105.97;5073348;28;20032;-76
2021/05/24 02:32:54;;;;;;;3.27;0.90;;;;;;;7.27;75.43;96093.00;5055954;28;20094;-75
2021/05/24 02:35:23;;;;;;;2.97;1.00;;;;;;;7.33;74.89;96097.66;5072935;28;20074;-75
2021/05/24 02:37:49;;;;;;;2.60;1.00;;;;;;;7.55;73.45;96103.53;5041959;28;20063;-75
2021/05/24 02:40:17;;;;;;;2.70;0.80;;;;;;;7.50;73.86;96108.34;5036174;28;20032;-75
2021/05/24 02:42:43;;;;;;;1.70;0.80;;;;;;;7.65;72.83;96112.16;5066336;28;20514;-75
2021/05/24 02:45:10;;;;;;;4.30;1.30;;;;;;;7.86;71.12;96114.53;5052229;28;20053;-75
2021/05/24 02:47:36;;;;;;;8.10;1.87;;;;;;;7.94;71.08;96098.09;5054484;28;20429;-75
2021/05/24 02:50:05;;;;;;;2.33;0.83;;;;;;;7.97;70.96;96093.38;5056467;28;20024;-76
2021/05/24 02:52:30;;;;;;;1.13;0.70;;;;;;;7.90;71.72;96096.75;5056670;28;20119;-75
2021/05/24 02:54:56;;;;;;;1.73;0.70;;;;;;;7.79;71.96;96103.81;5065954;28;20107;-75
2021/05/24 02:57:22;;;;;;;1.53;0.70;;;;;;;7.87;71.87;96091.78;5072222;28;20059;-75
2021/05/24 02:59:47;;;;;;;2.07;0.70;;;;;;;7.82;71.79;96086.19;5056042;28;20024;-75
2021/05/24 03:02:15;;;;;;;2.93;0.70;;;;;;;7.82;72.25;96079.16;5041333;28;20036;-75
2021/05/24 03:04:41;;;;;;;2.53;0.87;;;;;;;7.87;71.41;96081.31;5054017;28;20496;-75
2021/05/24 03:07:07;;;;;;;3.90;1.03;;;;;;;7.72;72.86;96073.16;5053972;28;20040;-75
2021/05/24 03:09:33;;;;;;;3.07;1.10;;;;;;;7.71;72.80;96080.19;5053054;28;20032;-75
2021/05/24 03:11:59;;;;;;;3.43;1.00;;;;;;;7.72;72.88;96070.53;5049300;28;20032;-76
2021/05/24 03:14:25;;;;;;;5.43;0.73;;;;;;;7.70;72.39;96073.28;5053262;28;20024;-75
2021/05/24 03:16:51;;;;;;;2.23;0.77;;;;;;;7.75;72.50;96065.00;5063805;28;20037;-77
2021/05/24 03:19:17;;;;;;;1.93;0.73;;;;;;;7.82;72.25;96060.81;5064406;28;20051;-75
2021/05/24 03:21:44;;;;;;;3.13;0.80;;;;;;;7.86;71.95;96062.19;5055394;28;20431;-75
2021/05/24 03:24:11;;;;;;;2.53;0.60;;;;;;;7.93;71.66;96073.72;5053143;28;20489;-75
2021/05/24 03:26:38;;;;;;;3.27;0.87;;;;;;;7.90;72.24;96075.78;5049213;28;20045;-75
2021/05/24 03:29:04;;;;;;;3.07;0.87;;;;;;;8.01;71.28;96072.97;5058228;28;20052;-74
2021/05/24 03:31:32;;;;;;;1.83;0.77;;;;;;;8.13;70.35;96070.97;5055998;28;20048;-75
2021/05/24 03:33:57;;;;;;;2.07;0.60;;;;;;;8.12;70.65;96067.53;5043284;28;20372;-75
2021/05/24 03:36:23;;;;;;;2.07;0.57;;;;;;;8.17;70.16;96070.53;5053159;28;20044;-75
2021/05/24 03:38:49;;;;;;;4.33;0.80;;;;;;;8.25;70.01;96075.84;5069202;28;20035;-75
2021/05/24 03:41:17;;;;;;;2.70;0.80;;;;;;;8.18;70.61;96061.72;5053008;28;20029;-75
2021/05/24 03:43:46;;;;;;;1.20;0.53;;;;;;;8.19;70.42;96063.34;5049675;28;20021;-75
2021/05/24 03:46:12;;;;;;;1.20;0.50;;;;;;;8.21;70.85;96076.28;5042563;28;20709;-75
2021/05/24 03:48:39;;;;;;;2.37;0.70;;;;;;;8.25;70.35;96070.63;5042072;28;20044;-75
2021/05/24 03:51:07;;;;;;;2.80;0.70;;;;;;;8.41;69.06;96063.91;5072260;28;20383;-75
2021/05/24 03:53:33;;;;;;;5.20;1.37;;;;;;;8.34;69.71;96068.06;5065597;28;20090;-75
2021/05/24 03:55:59;;;;;;;4.10;0.90;;;;;;;8.45;69.33;96063.47;5042996;28;20036;-75
2021/05/24 03:58:24;;;;;;;2.10;0.70;;;;;;;8.46;69.24;96045.94;5066384;28;20399;-75
2021/05/24 04:00:50;;;;;;;4.20;0.90;;;;;;;8.46;70.02;96053.81;5051656;28;20029;-76
2021/05/24 04:03:16;;;;;;;3.40;0.70;;;;;;;8.52;69.48;96047.97;5052093;28;20024;-76
2021/05/24 04:05:50;;;;;;;3.10;0.70;;;;;;;8.52;70.15;96054.97;5048351;28;20044;-76
2021/05/24 04:08:15;;;;;;;;;;;;;;;8.44;70.50;96040.84;5049182;28;20047;-76
2021/05/24 04:10:56;;;;;;;1.67;0.70;;;;;;;8.79;68.32;96049.66;5049317;28;19912;-76
2021/05/24 04:13:22;;;;;;;3.97;0.90;;;;;;;8.74;69.08;96050.09;5069397;28;20036;-76
2021/05/24 04:15:53;;;;;;;1.00;0.57;;;;;;;8.83;68.90;96039.69;5052573;28;20372;-76
2021/05/24 04:18:20;;;;;;;1.97;0.70;;;;;;;8.54;70.75;96039.94;5044623;28;20490;-76
2021/05/24 04:21:17;;;;;;;0.90;0.70;;;;;;;8.53;71.07;96056.66;5065170;28;20427;-76
2021/05/24 04:23:45;;;;;;;5.57;0.60;;;;;;;8.49;71.29;96050.88;5054318;28;20593;-76
2021/05/24 04:26:12;;;;;;;2.30;0.73;;;;;;;8.49;71.45;96054.31;5068252;28;20039;-76
2021/05/24 04:28:38;;;;;;;2.47;0.67;;;;;;;8.62;70.82;96053.94;5035433;28;20521;-75
2021/05/24 04:31:04;;;;;;;1.90;0.70;;;;;;;8.66;70.11;96049.22;5043845;28;20116;-76
2021/05/24 04:33:30;;;;;;;1.30;0.70;;;;;;;8.71;70.44;96039.91;5039487;28;20036;-75
2021/05/24 04:35:57;;;;;;;1.73;0.70;;;;;;;8.77;70.28;96043.72;5051961;28;20028;-74
2021/05/24 04:38:24;;;;;;;1.73;0.60;;;;;;;8.91;69.65;96035.31;5049679;28;20483;-75
2021/05/24 04:40:50;;;;;;;2.07;0.70;;;;;;;8.92;69.22;96038.75;5045839;28;20060;-74
2021/05/24 04:43:15;;;;;;;2.57;0.90;;;;;;;9.04;68.57;96032.28;5069052;28;20071;-74
2021/05/24 04:45:41;;;;;;;2.57;0.60;;;;;;;9.14;67.68;96035.63;5052222;28;20562;-75
2021/05/24 04:48:08;;;;;;;3.70;0.60;;;;;;;9.12;68.18;96050.69;5068514;28;20526;-75
2021/05/24 04:50:34;;;;;;;1.63;0.50;;;;;;;9.15;68.05;96042.53;5064207;28;20028;-75
2021/05/24 04:53:01;;;;;;;2.80;0.67;;;;;;;9.25;67.79;96029.28;5057915;28;20043;-75
2021/05/24 04:55:26;;;;;;;3.73;0.60;;;;;;;9.27;67.82;96016.00;5045218;28;20043;-75
2021/05/24 04:57:52;;;;;;;2.73;0.70;;;;;;;9.36;67.22;96025.56;5068529;28;20070;-76
2021/05/24 05:00:18;;;;;;;1.00;0.47;;;;;;;9.45;66.82;96035.13;5041685;28;20115;-76
2021/05/24 05:02:44;;;;;;;2.43;0.90;;;;;;;9.43;67.32;96034.47;5051869;28;20028;-76
2021/05/24 05:05:11;;;;;;;5.87;1.00;;;;;;;9.51;67.75;96038.91;5068595;28;20475;-76
2021/05/24 05:07:37;;;;;;;1.53;0.50;;;;;;;9.57;67.16;96027.78;5047852;28;20037;-76
2021/05/24 05:10:04;;;;;;;1.93;0.50;;;;;;;9.58;67.00;96014.50;5064223;28;20146;-76
2021/05/24 05:12:30;;;;;;;3.47;0.70;;;;;;;9.46;67.83;96013.16;5049646;28;20051;-76
2021/05/24 05:14:58;;;;;;;2.20;0.67;;;;;;;9.51;67.50;96016.13;5040619;28;20386;-76
2021/05/24 05:17:27;;;;;;;3.10;0.80;;;;;;;9.56;67.27;96013.03;5071833;28;20032;-76
2021/05/24 05:19:54;;;;;;;5.00;1.00;;;;;;;9.53;67.22;96011.53;5065736;28;20028;-76
2021/05/24 05:22:20;;;;;;;2.97;0.70;;;;;;;9.58;67.56;96018.94;5084739;28;20161;-77
2021/05/24 05:24:46;;;;;;;3.10;0.70;;;;;;;9.67;66.84;96015.38;5060489;28;20119;-76
2021/05/24 05:27:11;;;;;;;2.10;0.60;;;;;;;9.77;66.67;96018.69;5078539;28;20060;-76
2021/05/24 05:29:41;;;;;;;13.07;2.50;;;;;;;9.85;66.80;96013.44;5056933;28;20036;-76
2021/05/24 05:32:09;;;;;;;2.40;0.87;;;;;;;9.99;65.98;96014.63;5052591;28;20397;-76
2021/05/24 05:34:35;;;;;;;3.27;0.93;;;;;;;9.99;66.35;96003.28;5062662;28;20028;-76
2021/05/24 05:37:01;;;;;;;1.57;0.60;;;;;;;9.95;66.91;96025.63;5069876;28;20036;-76
2021/05/24 05:39:26;;;;;;;1.77;0.70;;;;;;;10.01;66.73;96019.72;5051739;28;20075;-76
2021/05/24 05:42:08;;;;;;;2.40;1.07;;;;;;;10.02;66.77;96018.72;5043730;28;20158;-76
2021/05/24 05:44:33;;;;;;;11.13;3.50;;;;;;;10.13;65.81;96013.19;5071214;28;20617;-76
2021/05/24 05:47:49;;;;;;;9.73;5.27;;;;;;;10.26;65.96;95997.81;5046936;28;20029;-77
2021/05/24 05:50:25;;;;;;;3.23;1.13;;;;;;;10.48;67.67;96000.75;5065025;28;20090;-76
2021/05/24 05:52:51;;;;;;;4.67;1.57;;;;;;;10.40;65.32;95992.88;5071916;28;20033;-76
2021/05/24 05:55:16;;;;;;;4.07;1.70;;;;;;;10.45;65.33;96001.09;5049452;28;20395;-76
2021/05/24 05:57:42;;;;;;;4.67;1.30;;;;;;;10.34;65.45;95992.53;5051196;28;20037;-76
2021/05/24 06:00:08;;;;;;;3.37;1.00;;;;;;;10.39;65.52;96002.56;5072869;28;20024;-76
2021/05/24 06:02:40;;;;;;;3.10;1.50;;;;;;;10.33;65.91;96000.59;5047083;28;20548;-76
2021/05/24 06:05:06;;;;;;;4.03;1.57;;;;;;;10.35;66.24;95994.19;5052546;28;20028;-76
2021/05/24 06:07:34;;;;;;;6.70;1.67;;;;;;;10.36;66.47;95993.22;5065175;28;20721;-78
2021/05/24 06:10:16;;;;;;;11.73;6.90;;;;;;;10.36;66.97;95995.00;5046866;28;20044;-76
2021/05/24 06:12:43;;;;;;;9.43;5.23;;;;;;;10.50;66.68;95988.28;5046565;28;20683;-75
2021/05/24 06:15:23;;;;;;;2.57;1.40;;;;;;;10.55;65.46;95989.41;5052994;28;20058;-75
2021/05/24 06:17:49;;;;;;;2.77;1.07;;;;;;;10.43;66.56;95988.13;5048933;28;20191;-76
2021/05/24 06:20:55;;;;;;;3.13;1.17;;;;;;;10.61;65.70;95975.59;5077089;28;20103;-76
2021/05/24 06:23:21;;;;;;;1.33;0.63;;;;;;;10.66;64.73;95979.53;5062928;28;20116;-76
2021/05/24 06:25:46;;;;;;;3.53;0.67;;;;;;;10.64;65.38;95973.66;5054403;28;20032;-75
2021/05/24 06:28:15;;;;;;;4.70;1.10;;;;;;;10.83;65.47;95968.00;5048285;28;20040;-76
2021/05/24 06:30:41;;;;;;;2.40;0.90;;;;;;;10.80;65.34;95965.75;5072166;28;20089;-76
2021/05/24 06:33:07;;;;;;;3.47;1.37;;;;;;;10.78;65.65;95965.06;5052685;28;20043;-77
2021/05/24 06:35:33;;;;;;;2.00;0.97;;;;;;;10.78;65.55;95972.97;5054203;28;20025;-75
2021/05/24 06:37:59;;;;;;;1.73;0.73;;;;;;;10.76;65.68;95973.13;5047163;28;20178;-76
2021/05/24 06:40:25;;;;;;;1.70;0.70;;;;;;;10.79;65.31;95977.22;5054393;28;20123;-76
2021/05/24 06:42:51;;;;;;;2.43;0.90;;;;;;;10.67;64.65;95973.31;5054736;28;20689;-76
2021/05/24 06:45:19;;;;;;;1.90;0.50;;;;;;;10.55;65.45;95964.94;5050537;28;20498;-77
2021/05/24 06:47:45;;;;;;;1.23;0.50;;;;;;;10.63;65.62;95970.19;5041747;28;20390;-76
2021/05/24 06:50:12;;;;;;;1.70;0.77;;;;;;;10.49;65.70;95974.28;5060738;28;20025;-76
2021/05/24 06:52:38;;;;;;;2.40;0.70;;;;;;;10.59;66.35;95969.69;5059380;28;20044;-75
2021/05/24 06:55:04;;;;;;;1.20;0.67;;;;;;;10.69;65.43;95977.41;5051629;28;20032;-77
2021/05/24 06:57:30;;;;;;;1.73;0.70;;;;;;;10.69;65.84;95973.97;5070432;28;20036;-77
2021/05/24 06:59:56;;;;;;;3.10;0.80;;;;;;;10.79;65.69;95966.72;5048300;28;20032;-76
2021/05/24 07:02:23;;;;;;;1.80;0.70;;;;;;;10.87;65.38;95958.81;5064171;28;20109;-77
2021/05/24 07:04:48;;;;;;;1.40;0.60;;;;;;;10.74;65.33;95961.97;5050790;28;20029;-76
2021/05/24 07:07:14;;;;;;;2.43;0.80;;;;;;;10.78;65.77;95970.34;5053671;28;20191;-77
2021/05/24 07:09:40;;;;;;;2.07;0.60;;;;;;;10.86;65.69;95967.69;5053534;28;20081;-76
2021/05/24 07:12:07;;;;;;;2.53;0.83;;;;;;;10.80;66.11;95961.28;5067980;28;20032;-78
2021/05/24 07:14:33;;;;;;;2.63;0.60;;;;;;;10.87;65.19;95958.81;5057019;28;20064;-76
2021/05/24 07:17:05;;;;;;;2.37;0.60;;;;;;;11.02;65.66;95946.59;5049157;28;20063;-77
2021/05/24 07:19:31;;;;;;;1.98;0.70;;;;;;;11.40;64.39;95951.22;5051938;28;20039;-77
2021/05/24 07:21:57;;;;;;;1.87;0.80;;;;;;;11.26;64.29;95960.66;5052512;28;20029;-77
2021/05/24 07:24:23;;;;;;;4.93;0.73;;;;;;;11.32;64.68;95963.44;5076177;28;20460;-77
2021/05/24 07:26:50;;;;;;;4.10;0.77;;;;;;;11.54;64.23;95959.25;5069522;28;20032;-77
2021/05/24 07:29:17;;;;;;;2.80;1.00;;;;;;;11.73;62.95;95965.88;5035835;28;20036;-76
2021/05/24 07:31:56;;;;;;;2.47;0.80;;;;;;;11.53;63.89;95952.31;5059919;28;20029;-76
2021/05/24 07:34:22;;;;;;;3.83;0.87;;;;;;;12.53;61.41;95940.97;5046586;28;20486;-77
2021/05/24 07:36:48;;;;;;;1.90;0.80;;;;;;;12.38;61.82;95935.69;5063543;28;20025;-76
2021/05/24 07:39:13;;;;;;;2.00;0.70;;;;;;;12.20;62.33;95943.06;5060187;28;20041;-77
2021/05/24 07:41:39;;;;;;;2.00;0.50;;;;;;;12.22;62.64;95943.72;5051928;28;20036;-77
2021/05/24 07:44:06;;;;;;;3.00;0.93;;;;;;;12.24;62.75;95931.19;5052761;28;20039;-77
2021/05/24 07:46:34;;;;;;;2.07;1.00;;;;;;;12.26;62.34;95929.19;5070115;28;20036;-77
2021/05/24 07:49:00;;;;;;;1.80;0.97;;;;;;;12.45;62.28;95926.06;5052183;28;20036;-77
2021/05/24 07:51:30;;;;;;;2.03;0.83;;;;;;;13.10;60.36;95931.69;5050952;28;20455;-77
2021/05/24 07:53:56;;;;;;;1.80;0.80;;;;;;;14.14;57.20;95927.03;5051046;28;20033;-79
2021/05/24 07:56:22;;;;;;;3.67;1.10;;;;;;;14.10;57.35;95921.28;5056950;28;20079;-79
2021/05/24 07:58:48;;;;;;;1.57;0.80;;;;;;;15.04;56.07;95920.22;5049823;28;21715;-79
2021/05/24 08:01:13;;;;;;;1.93;1.10;;;;;;;15.40;54.50;95919.22;5053678;28;20029;-79
2021/05/24 08:03:40;;;;;;;3.23;1.60;;;;;;;15.60;54.05;95909.50;5056407;28;20119;-78
2021/05/24 08:06:06;;;;;;;3.33;0.87;;;;;;;15.75;51.67;95902.22;5055174;28;20482;-76
2021/05/24 08:08:32;;;;;;;3.23;0.97;;;;;;;16.36;50.63;95914.59;5040059;28;20037;-75
2021/05/24 08:10:58;;;;;;;0.93;0.70;;;;;;;17.18;47.69;95907.22;5044887;28;20035;-74
2021/05/24 08:13:26;;;;;;;2.97;0.90;;;;;;;17.49;46.55;95909.16;5058511;28;20793;-74
2021/05/24 08:15:52;;;;;;;1.40;0.63;;;;;;;17.01;48.31;95917.47;5064652;28;20021;-74
2021/05/24 08:18:18;;;;;;;1.63;0.90;;;;;;;17.23;46.57;95925.16;5049353;28;20036;-74
2021/05/24 08:20:44;;;;;;;2.13;1.00;;;;;;;17.14;47.84;95928.06;5046688;28;20082;-74
2021/05/24 08:23:10;;;;;;;1.55;0.70;;;;;;;17.02;48.71;95929.72;5072538;28;20115;-75
2021/05/24 08:25:37;;;;;;;3.15;1.20;;;;;;;17.47;48.57;95921.84;5054342;28;20107;-74
2021/05/24 08:28:03;;;;;;;1.60;0.75;;;;;;;17.19;50.36;95919.47;5062546;28;20044;-73
2021/05/24 08:30:29;;;;;;;1.25;0.68;;;;;;;17.44;47.43;95923.06;5068647;28;20028;-74
2021/05/24 08:32:55;;;;;;;3.00;0.90;;;;;;;17.37;47.63;95910.81;5048838;28;20059;-74
2021/05/24 08:35:22;;;;;;;2.25;0.80;;;;;;;16.35;50.54;95922.75;5056005;28;20483;-74
2021/05/24 08:37:47;;;;;;;1.52;0.63;;;;;;;16.79;49.73;95916.06;5065540;28;20035;-74
2021/05/24 08:40:13;;;;;;;1.80;0.75;;;;;;;16.82;50.10;95913.00;5051899;28;20111;-74
2021/05/24 08:42:42;;;;;;;2.78;0.80;;;;;;;16.80;49.24;95899.94;5045809;28;20466;-74
2021/05/24 08:45:09;;;;;;;1.52;0.60;;;;;;;17.03;48.80;95904.78;5061014;28;20397;-74
2021/05/24 08:47:35;;;;;;;2.45;0.98;;;;;;;16.05;51.73;95890.47;5051520;28;20402;-74
2021/05/24 08:50:00;;;;;;;2.63;0.70;;;;;;;16.09;49.57;95887.22;5075463;28;20024;-74
2021/05/24 08:52:28;;;;;;;2.05;0.55;;;;;;;16.08;51.18;95885.59;5071281;28;20418;-75
2021/05/24 08:54:54;;;;;;;1.77;0.85;;;;;;;15.89;50.76;95881.06;5074055;28;20032;-74
2021/05/24 08:57:20;;;;;;;2.33;0.73;;;;;;;16.04;51.39;95873.75;5078398;28;20123;-74
2021/05/24 08:59:46;;;;;;;2.20;1.00;;;;;;;16.15;52.12;95874.97;5068359;28;20028;-74
2021/05/24 09:02:13;;;;;;;4.27;1.40;;;;;;;16.18;49.88;95867.44;5070551;28;20039;-74
2021/05/24 09:04:40;;;;;;;3.28;1.08;;;;;;;16.15;49.36;95867.84;5051009;28;20102;-74
2021/05/24 09:07:06;;;;;;;2.85;0.60;;;;;;;16.01;48.53;95863.53;5064251;28;20064;-73
2021/05/24 09:09:32;;;;;;;1.95;0.70;;;;;;;15.79;49.94;95862.88;5038903;28;20023;-74
2021/05/24 09:11:58;;;;;;;2.38;1.20;;;;;;;15.81;50.17;95860.84;5068078;28;20032;-74
2021/05/24 09:14:27;;;;;;;2.33;0.70;;;;;;;15.96;49.00;95861.50;5067465;28;20074;-74
2021/05/24 09:16:58;;;;;;;2.13;0.90;;;;;;;16.04;49.81;95855.19;5067548;28;20036;-74
2021/05/24 09:19:26;;;;;;;1.92;0.80;;;;;;;15.64;49.95;95848.97;5051748;28;20069;-74
2021/05/24 09:21:58;;;;;;;1.52;0.95;;;;;;;15.40;50.31;95840.53;5078531;28;20028;-73
2021/05/24 09:24:28;;;;;;;1.95;0.85;;;;;;;15.23;50.66;95845.38;5060684;28;20035;-74
2021/05/24 09:26:57;;;;;;;1.63;0.70;;;;;;;15.46;49.40;95846.84;5064742;28;20086;-74
2021/05/24 09:29:24;;;;;;;0.90;0.53;;;;;;;15.24;48.96;95849.63;5053392;28;20036;-74
2021/05/24 09:32:10;;;;;;;1.03;0.70;;;;;;;15.22;50.00;95842.91;5042695;28;20516;-74
2021/05/24 09:34:37;;;;;;;1.90;0.80;;;;;;;15.13;49.75;95839.63;5045160;28;20036;-74
2021/05/24 09:37:02;;;;;;;3.77;0.80;;;;;;;15.33;50.17;95843.16;5050401;28;20857;-74
2021/05/24 09:39:33;;;;;;;1.90;0.70;;;;;;;15.79;48.97;95847.81;5064424;28;20028;-75
2021/05/24 09:42:04;;;;;;;2.03;0.60;;;;;;;15.69;49.25;95844.72;5067901;28;20032;-75
2021/05/24 09:44:32;;;;;;;1.83;0.93;;;;;;;15.73;48.79;95840.66;5048565;28;20028;-74
2021/05/24 09:46:58;;;;;;;4.70;1.70;;;;;;;15.88;47.62;95842.31;5037334;28;20033;-74
2021/05/24 09:49:29;;;;;;;2.53;0.70;;;;;;;15.89;48.88;95833.31;5061884;28;20031;-74
2021/05/24 09:51:56;;;;;;;4.43;1.53;;;;;;;15.78;49.88;95832.91;5069989;28;20032;-75
2021/05/24 09:54:23;;;;;;;2.45;0.90;;;;;;;16.22;47.98;95826.19;5056337;28;20505;-74
2021/05/24 09:56:49;;;;;;;1.87;0.87;;;;;;;15.88;48.36;95834.34;5052463;28;20566;-74
2021/05/24 09:59:25;;;;;;;1.47;0.70;;;;;;;16.23;47.64;95829.66;5071261;28;20743;-74
2021/05/24 10:01:57;;;;;;;2.03;0.80;;;;;;;16.07;47.38;95816.84;5054330;28;20731;-74
2021/05/24 10:04:29;;;;;;;1.95;0.60;;;;;;;15.76;49.36;95821.69;5054567;28;20143;-75
2021/05/24 10:06:56;;;;;;;4.03;2.03;;;;;;;16.00;48.54;95816.81;5053215;28;20037;-74
2021/05/24 10:09:22;;;;;;;4.25;1.98;;;;;;;16.25;47.78;95815.19;5054258;28;20028;-74
2021/05/24 10:11:50;;;;;;;0.88;0.52;;;;;;;16.69;47.76;95808.38;5071486;28;20036;-74
2021/05/24 10:14:19;;;;;;;2.25;1.05;;;;;;;16.18;48.44;95817.03;5071294;28;20099;-75
2021/05/24 10:16:49;;;;;;;13.27;8.65;;;;;;;16.01;48.14;95831.72;5053460;28;20497;-74
2021/05/24 10:19:17;;;;;;;8.10;4.60;;;;;;;15.73;48.73;95829.25;5055686;28;20028;-74
2021/05/24 10:21:47;;;;;;;2.58;1.27;;;;;;;15.63;49.14;95824.28;5075931;28;20028;-75
2021/05/24 10:24:14;;;;;;;5.05;2.53;;;;;;;15.32;49.63;95824.78;5071200;28;20048;-74
2021/05/24 10:26:44;;;;;;;6.07;2.70;;;;;;;15.43;50.98;95832.19;5050069;28;20046;-75
2021/05/24 10:29:23;;;;;;;1.87;0.73;;;;;;;15.83;49.42;95828.81;5054111;28;20037;-75
2021/05/24 10:31:50;;;;;;;2.70;1.20;;;;;;;15.72;49.93;95823.09;5053933;28;20073;-75
2021/05/24 10:34:21;;;;;;;2.67;0.80;;;;;;;15.92;49.62;95824.97;5070724;28;20055;-74
2021/05/24 10:37:04;;;;;;;0.93;0.57;;;;;;;15.77;49.29;95825.97;5052811;28;20025;-75
2021/05/24 10:39:42;;;;;;;4.07;1.00;;;;;;;16.05;49.16;95813.56;5054113;28;20060;-75
2021/05/24 10:42:11;;;;;;;1.53;0.97;;;;;;;15.86;49.13;95808.06;5068574;28;20398;-74
2021/05/24 10:44:45;;;;;;;3.22;1.02;;;;;;;15.87;49.99;95808.84;5070086;28;20021;-74
2021/05/24 10:47:14;;;;;;;2.08;0.60;;;;;;;15.49;50.20;95812.00;5069790;28;20106;-75
2021/05/24 10:50:05;;;;;;;2.23;0.80;;;;;;;15.82;50.15;95812.09;5071831;28;20029;-74
2021/05/24 10:52:36;;;;;;;3.20;1.67;;;;;;;15.98;51.26;95805.59;5071787;28;20501;-75
2021/05/24 10:55:25;;;;;;;1.98;1.20;;;;;;;16.04;49.09;95794.19;5051460;28;20556;-74
2021/05/24 10:58:00;;;;;;;2.37;1.00;;;;;;;15.90;49.64;95798.66;5055026;28;20047;-75
2021/05/24 11:00:27;;;;;;;3.73;0.90;;;;;;;16.20;50.32;95801.72;5070135;28;20090;-74
2021/05/24 11:02:55;;;;;;;1.50;0.88;;;;;;;16.31;49.84;95796.81;5069483;28;20036;-75
2021/05/24 11:05:31;;;;;;;1.85;1.00;;;;;;;16.73;48.36;95792.84;5070055;28;20119;-75
2021/05/24 11:08:01;;;;;;;2.40;0.50;;;;;;;16.48;48.71;95792.72;5040043;28;20628;-75
2021/05/24 11:10:30;;;;;;;1.17;0.73;;;;;;;16.38;49.15;95800.28;5063697;28;20593;-75
2021/05/24 11:13:11;;;;;;;3.50;0.73;;;;;;;16.22;50.35;95791.72;5047567;28;20482;-75
2021/05/24 11:15:45;;;;;;;2.97;0.70;;;;;;;16.21;50.54;95779.47;5047837;28;20071;-75
2021/05/24 11:18:20;;;;;;;1.65;0.70;;;;;;;16.38;50.53;95774.56;5052783;28;20035;-73
2021/05/24 11:20:50;;;;;;;0.65;0.43;;;;;;;16.42;50.34;95783.72;5061334;28;20043;-74
2021/05/24 11:26:16;;;;;;;3.58;1.00;;;;;;;16.14;52.82;95778.66;5062623;28;20090;-74
2021/05/24 11:28:49;;;;;;;1.95;1.00;;;;;;;16.43;52.17;95773.91;5077160;28;20107;-74
2021/05/24 11:31:21;;;;;;;2.20;0.80;;;;;;;16.29;51.85;95764.34;5066417;28;20060;-73
2021/05/24 11:33:48;;;;;;;3.50;1.00;;;;;;;16.06;52.39;95765.59;5050093;28;20487;-74
2021/05/24 11:36:38;;;;;;;2.92;0.93;;;;;;;16.60;51.49;95753.06;5069373;28;20020;-74
2021/05/24 11:39:12;;;;;;;1.50;0.60;;;;;;;16.76;50.24;95765.09;5061790;28;20565;-73
2021/05/24 11:41:52;;;;;;;1.60;0.65;;;;;;;16.56;50.60;95754.50;5049387;28;20052;-74
2021/05/24 11:44:28;;;;;;;1.70;0.50;;;;;;;16.88;49.70;95758.13;5066236;28;20028;-74